createdAt,value
2023-05-11T00:01:36.962Z,99541.22
2023-05-11T00:03:38.619Z,99541.47
2023-05-11T00:05:40.275Z,99535.38
2023-05-11T00:07:41.809Z,99528.66
2023-05-11T00:09:43.379Z,99531.59
2023-05-11T00:11:44.890Z,99535.22
2023-05-11T00:13:46.683Z,99535.13
2023-05-11T00:15:48.225Z,99539.78
2023-05-11T00:17:49.789Z,99527.47
2023-05-11T00:19:51.341Z,99531.47
2023-05-11T00:21:52.919Z,99537.59
2023-05-11T00:23:54.591Z,99530.69
2023-05-11T00:25:56.147Z,99533.00
2023-05-11T00:27:57.717Z,99536.94
2023-05-11T00:29:59.229Z,99533.47
2023-05-11T00:32:00.912Z,99529.47
2023-05-11T00:34:02.496Z,99533.88
2023-05-11T00:36:04.432Z,99532.50
2023-05-11T00:38:06.074Z,99534.34
2023-05-11T00:40:10.069Z,99530.66
2023-05-11T00:42:11.798Z,99531.44
2023-05-11T00:44:13.374Z,99523.75
2023-05-11T00:46:15.024Z,99531.22
2023-05-11T00:48:17.370Z,99523.25
2023-05-11T00:50:19.447Z,99526.25
2023-05-11T00:52:21.966Z,99520.94
2023-05-11T00:54:23.626Z,99521.97
2023-05-11T00:56:25.717Z,99526.50
2023-05-11T00:58:27.301Z,99527.59
2023-05-11T01:00:28.953Z,99518.88
2023-05-11T01:02:31.204Z,99522.72
2023-05-11T01:04:33.791Z,99521.41
2023-05-11T01:06:47.263Z,99524.06
2023-05-11T01:08:56.989Z,99524.63
2023-05-11T01:11:23.592Z,99522.78
2023-05-11T01:13:39.771Z,99525.19
2023-05-11T01:15:41.228Z,99524.63
2023-05-11T01:17:45.810Z,99523.59
2023-05-11T01:19:58.653Z,99529.47
2023-05-11T01:22:03.344Z,99527.53
2023-05-11T01:24:23.032Z,99528.34
2023-05-11T01:26:54.354Z,99527.28
2023-05-11T01:29:10.739Z,99527.53
2023-05-11T01:31:15.412Z,99536.28
2023-05-11T01:33:24.951Z,99535.00
2023-05-11T01:35:29.817Z,99533.72
2023-05-11T01:37:33.694Z,99531.88
2023-05-11T01:39:39.985Z,99539.81
2023-05-11T01:41:45.732Z,99537.75
2023-05-11T01:43:53.488Z,99532.44
2023-05-11T01:46:00.534Z,99535.88
2023-05-11T01:48:06.258Z,99539.00
2023-05-11T01:50:09.262Z,99540.41
2023-05-11T01:52:12.088Z,99541.19
2023-05-11T01:54:19.198Z,99540.72
2023-05-11T01:56:22.941Z,99537.75
2023-05-11T01:58:25.998Z,99542.56
2023-05-11T02:00:27.646Z,99547.06
2023-05-11T02:02:30.327Z,99540.72
2023-05-11T02:04:32.038Z,99545.22
2023-05-11T02:06:35.719Z,99549.47
2023-05-11T02:08:39.396Z,99544.41
2023-05-11T02:10:42.230Z,99546.03
2023-05-11T02:12:45.605Z,99552.38
2023-05-11T02:14:48.822Z,99550.84
2023-05-11T02:16:50.849Z,99552.59
2023-05-11T02:18:54.534Z,99553.41
2023-05-11T02:20:58.379Z,99546.81
2023-05-11T02:23:01.072Z,99541.50
2023-05-11T02:25:04.576Z,99543.59
2023-05-11T02:27:06.348Z,99548.09
2023-05-11T02:29:08.064Z,99545.38
2023-05-11T02:31:16.759Z,99548.38
2023-05-11T02:33:24.172Z,99540.16
2023-05-11T02:35:29.295Z,99537.75
2023-05-11T02:37:33.594Z,99538.53
2023-05-11T02:39:36.571Z,99543.84
2023-05-11T02:41:43.353Z,99541.44
2023-05-11T02:43:47.396Z,99540.63
2023-05-11T02:45:52.613Z,99542.72
2023-05-11T02:47:56.673Z,99546.97
2023-05-11T02:50:03.475Z,99546.75
2023-05-11T02:52:06.327Z,99544.91
2023-05-11T02:54:13.312Z,99550.69
2023-05-11T02:56:15.434Z,99546.75
2023-05-11T02:58:18.179Z,99541.44
2023-05-11T03:00:20.312Z,99549.41
2023-05-11T03:02:22.553Z,99554.69
2023-05-11T03:04:24.638Z,99546.16
2023-05-11T03:06:26.303Z,99553.88
2023-05-11T03:08:27.850Z,99552.59
2023-05-11T03:10:29.761Z,99551.25
2023-05-11T03:12:35.276Z,99557.09
2023-05-11T03:14:38.247Z,99559.53
2023-05-11T03:16:41.193Z,99558.50
2023-05-11T03:18:44.395Z,99562.19
2023-05-11T03:20:47.562Z,99560.56
2023-05-11T03:22:49.842Z,99553.41
2023-05-11T03:24:52.463Z,99555.84
2023-05-11T03:26:57.570Z,99563.22
2023-05-11T03:29:00.940Z,99550.53
2023-05-11T03:31:02.486Z,99552.59
2023-05-11T03:33:04.224Z,99551.34
2023-05-11T03:35:06.445Z,99552.38
2023-05-11T03:37:11.990Z,99547.88
2023-05-11T03:39:16.228Z,99561.94
2023-05-11T03:41:18.186Z,99554.22
2023-05-11T03:43:22.012Z,99549.13
2023-05-11T03:45:26.112Z,99543.84
2023-05-11T03:47:28.812Z,99551.47
2023-05-11T03:49:34.008Z,99547.28
2023-05-11T03:51:36.406Z,99541.13
2023-05-11T03:53:38.557Z,99537.88
2023-05-11T03:55:40.362Z,99548.47
2023-05-11T03:57:42.066Z,99541.91
2023-05-11T03:59:43.637Z,99545.38
2023-05-11T04:01:45.600Z,99542.97
2023-05-11T04:03:51.838Z,99543.50
2023-05-11T04:05:53.580Z,99537.44
2023-05-11T04:07:55.308Z,99546.91
2023-05-11T04:09:56.815Z,99543.09
2023-05-11T04:11:58.340Z,99541.50
2023-05-11T04:13:59.917Z,99540.69
2023-05-11T04:16:01.434Z,99537.00
2023-05-11T04:18:03.240Z,99547.59
2023-05-11T04:20:05.577Z,99542.78
2023-05-11T04:22:07.132Z,99550.97
2023-05-11T04:24:09.049Z,99547.00
2023-05-11T04:26:10.569Z,99547.00
2023-05-11T04:28:12.238Z,99542.31
2023-05-11T04:30:13.930Z,99541.50
2023-05-11T04:32:15.804Z,99544.38
2023-05-11T04:34:17.337Z,99545.50
2023-05-11T04:36:18.914Z,99544.47
2023-05-11T04:38:22.352Z,99540.19
2023-05-11T04:40:24.008Z,99549.56
2023-05-11T04:42:25.710Z,99552.75
2023-05-11T04:44:27.517Z,99549.88
2023-05-11T04:46:29.128Z,99558.63
2023-05-11T04:48:30.738Z,99564.50
2023-05-11T04:50:32.828Z,99559.75
2023-05-11T04:52:34.390Z,99563.78
2023-05-11T04:54:36.911Z,99568.13
2023-05-11T04:56:40.649Z,99568.94
2023-05-11T04:58:42.301Z,99568.94
2023-05-11T05:00:43.866Z,99568.22
2023-05-11T05:02:45.544Z,99568.47
2023-05-11T05:04:47.123Z,99571.44
2023-05-11T05:06:48.612Z,99573.28
2023-05-11T05:08:50.174Z,99570.41
2023-05-11T05:10:51.722Z,99577.31
2023-05-11T05:12:53.271Z,99574.19
2023-05-11T05:14:54.807Z,99574.91
2023-05-11T05:16:56.433Z,99580.06
2023-05-11T05:18:58.032Z,99581.41
2023-05-11T05:20:59.703Z,99582.47
2023-05-11T05:23:02.014Z,99578.53
2023-05-11T05:25:03.863Z,99579.66
2023-05-11T05:27:05.568Z,99591.16
2023-05-11T05:29:07.208Z,99583.84
2023-05-11T05:31:08.856Z,99585.56
2023-05-11T05:33:10.953Z,99586.69
2023-05-11T05:35:12.668Z,99592.22
2023-05-11T05:37:14.212Z,99592.31
2023-05-11T05:39:15.837Z,99587.56
2023-05-11T05:41:17.367Z,99592.22
2023-05-11T05:43:18.868Z,99597.91
2023-05-11T05:45:20.726Z,99598.19
2023-05-11T05:47:22.375Z,99601.06
2023-05-11T05:49:23.976Z,99604.94
2023-05-11T05:51:25.607Z,99599.06
2023-05-11T05:53:27.146Z,99613.22
2023-05-11T05:55:28.696Z,99605.50
2023-05-11T05:57:30.764Z,99602.13
2023-05-11T05:59:32.505Z,99613.63
2023-05-11T06:01:34.093Z,99613.75
2023-05-11T06:03:36.110Z,99610.50
2023-05-11T06:05:37.778Z,99608.31
2023-05-11T06:07:39.338Z,99607.84
2023-05-11T06:09:41.118Z,99609.56
2023-05-11T06:11:42.709Z,99609.63
2023-05-11T06:13:44.258Z,99608.75
2023-05-11T06:15:45.801Z,99614.63
2023-05-11T06:17:47.394Z,99614.69
2023-05-11T06:19:49.921Z,99610.44
2023-05-11T06:21:51.446Z,99611.22
2023-05-11T06:23:52.971Z,99615.91
2023-05-11T06:25:54.541Z,99617.28
2023-05-11T06:27:56.082Z,99618.09
2023-05-11T06:29:57.646Z,99620.16
2023-05-11T06:31:59.193Z,99612.19
2023-05-11T06:34:00.789Z,99616.53
2023-05-11T06:36:06.617Z,99617.56
2023-05-11T06:38:08.227Z,99614.38
2023-05-11T06:40:10.413Z,99618.19
2023-05-11T06:42:12.274Z,99615.00
2023-05-11T06:44:13.871Z,99617.13
2023-05-11T06:46:17.686Z,99622.56
2023-05-11T06:48:20.094Z,99624.19
2023-05-11T06:50:22.157Z,99619.78
2023-05-11T06:52:24.558Z,99617.63
2023-05-11T06:54:26.051Z,99624.59
2023-05-11T06:56:29.085Z,99626.19
2023-05-11T06:58:31.397Z,99629.00
2023-05-11T07:00:32.908Z,99633.03
2023-05-11T07:02:34.517Z,99631.81
2023-05-11T07:04:36.202Z,99632.16
2023-05-11T07:06:37.761Z,99634.38
2023-05-11T07:08:39.359Z,99633.28
2023-05-11T07:10:41.930Z,99631.19
2023-05-11T07:12:43.612Z,99634.38
2023-05-11T07:14:45.159Z,99632.28
2023-05-11T07:16:46.766Z,99636.03
2023-05-11T07:18:48.443Z,99635.31
2023-05-11T07:20:50.191Z,99633.59
2023-05-11T07:22:51.723Z,99638.09
2023-05-11T07:24:53.302Z,99626.66
2023-05-11T07:26:55.793Z,99634.19
2023-05-11T07:28:57.871Z,99630.63
2023-05-11T07:30:59.482Z,99636.25
2023-05-11T07:33:01.138Z,99628.88
2023-05-11T07:35:02.746Z,99629.00
2023-05-11T07:37:04.254Z,99637.28
2023-05-11T07:39:05.895Z,99635.19
2023-05-11T07:41:08.867Z,99635.25
2023-05-11T07:43:11.748Z,99638.38
2023-05-11T07:45:13.314Z,99640.84
2023-05-11T07:47:15.301Z,99633.78
2023-05-11T07:49:20.834Z,99637.59
2023-05-11T07:51:29.865Z,99636.91
2023-05-11T07:53:31.603Z,99638.91
2023-05-11T07:55:33.325Z,99635.69
2023-05-11T07:57:34.959Z,99638.41
2023-05-11T07:59:36.583Z,99641.28
2023-05-11T08:01:38.396Z,99632.22
2023-05-11T08:03:40.034Z,99635.22
2023-05-11T08:05:41.746Z,99643.00
2023-05-11T08:07:43.255Z,99642.25
2023-05-11T08:09:44.841Z,99642.56
2023-05-11T08:11:47.185Z,99641.28
2023-05-11T08:13:48.761Z,99644.47
2023-05-11T08:15:50.388Z,99650.28
2023-05-11T08:17:51.998Z,99642.63
2023-05-11T08:19:53.657Z,99644.81
2023-05-11T08:21:55.351Z,99653.09
2023-05-11T08:23:56.921Z,99650.00
2023-05-11T08:25:58.457Z,99650.38
2023-05-11T08:28:00.015Z,99646.78
2023-05-11T08:30:01.655Z,99644.50
2023-05-11T08:32:03.288Z,99649.25
2023-05-11T08:34:15.485Z,99646.09
2023-05-11T08:36:20.576Z,99647.63
2023-05-11T08:38:22.074Z,99644.44
2023-05-11T08:40:27.779Z,99645.09
2023-05-11T08:42:33.058Z,99644.34
2023-05-11T08:44:37.679Z,99646.53
2023-05-11T08:46:41.793Z,99648.66
2023-05-11T08:48:44.501Z,99644.34
2023-05-11T08:50:46.604Z,99640.69
2023-05-11T08:52:48.339Z,99642.94
2023-05-11T08:54:49.954Z,99646.16
2023-05-11T08:56:51.982Z,99645.91
2023-05-11T08:58:57.807Z,99646.72
2023-05-11T09:00:59.769Z,99643.25
2023-05-11T09:03:02.465Z,99645.38
2023-05-11T09:05:04.648Z,99645.38
2023-05-11T09:07:06.887Z,99643.75
2023-05-11T09:09:08.744Z,99645.13
2023-05-11T09:11:10.839Z,99642.16
2023-05-11T09:13:13.138Z,99646.97
2023-05-11T09:15:14.755Z,99647.22
2023-05-11T09:17:16.329Z,99642.72
2023-05-11T09:19:17.917Z,99648.56
2023-05-11T09:21:20.322Z,99647.66
2023-05-11T09:23:29.241Z,99643.56
2023-05-11T09:25:34.917Z,99637.72
2023-05-11T09:27:42.055Z,99633.69
2023-05-11T09:29:43.609Z,99643.88
2023-05-11T09:31:48.726Z,99635.88
2023-05-11T09:33:50.268Z,99639.03
2023-05-11T09:35:52.677Z,99638.09
2023-05-11T09:38:08.324Z,99631.09
2023-05-11T09:40:26.402Z,99627.06
2023-05-11T09:42:29.963Z,99632.97
2023-05-11T09:44:31.979Z,99631.00
2023-05-11T09:46:33.584Z,99634.72
2023-05-11T09:48:35.859Z,99632.19
2023-05-11T09:50:37.483Z,99635.13
2023-05-11T09:52:51.036Z,99634.38
2023-05-11T09:54:52.853Z,99633.03
2023-05-11T09:56:56.760Z,99637.06
2023-05-11T09:58:59.367Z,99629.31
2023-05-11T10:01:00.953Z,99634.44
2023-05-11T10:03:08.140Z,99632.81
2023-05-11T10:05:13.193Z,99630.44
2023-05-11T10:07:34.605Z,99633.63
2023-05-11T10:09:36.636Z,99633.91
2023-05-11T10:11:43.433Z,99626.41
2023-05-11T10:13:45.947Z,99621.59
2023-05-11T10:15:51.874Z,99623.19
2023-05-11T10:17:58.365Z,99621.84
2023-05-11T10:20:01.948Z,99621.56
2023-05-11T10:22:05.827Z,99615.94
2023-05-11T10:24:08.223Z,99622.41
2023-05-11T10:26:11.068Z,99620.00
2023-05-11T10:28:12.779Z,99623.47
2023-05-11T10:30:14.629Z,99623.75
2023-05-11T10:32:17.912Z,99631.50
2023-05-11T10:34:20.537Z,99625.88
2023-05-11T10:36:24.329Z,99628.03
2023-05-11T10:38:26.168Z,99626.69
2023-05-11T10:40:28.116Z,99623.72
2023-05-11T10:42:44.876Z,99617.06
2023-05-11T10:45:14.316Z,99619.69
2023-05-11T10:47:55.243Z,99624.19
2023-05-11T10:50:13.727Z,99628.22
2023-05-11T10:52:44.141Z,99627.63
2023-05-11T10:54:51.676Z,99618.53
2023-05-11T10:57:14.960Z,99626.50
2023-05-11T10:59:43.374Z,99626.44
2023-05-11T11:01:46.458Z,99620.03
2023-05-11T11:04:05.284Z,99616.59
2023-05-11T11:06:23.207Z,99613.28
2023-05-11T11:08:25.607Z,99609.41
2023-05-11T11:10:50.216Z,99610.59
2023-05-11T11:13:15.034Z,99617.72
2023-05-11T11:15:17.017Z,99612.97
2023-05-11T11:17:18.611Z,99604.97
2023-05-11T11:19:31.875Z,99603.06
2023-05-11T11:21:43.063Z,99603.88
2023-05-11T11:23:50.379Z,99602.41
2023-05-11T11:25:56.417Z,99592.31
2023-05-11T11:27:58.784Z,99600.22
2023-05-11T11:30:23.460Z,99605.31
2023-05-11T11:32:26.395Z,99598.94
2023-05-11T11:34:27.890Z,99596.56
2023-05-11T11:37:06.277Z,99613.41
2023-05-11T11:39:08.211Z,99608.44
2023-05-11T11:41:09.787Z,99605.53
2023-05-11T11:43:19.645Z,99600.41
2023-05-11T11:45:30.305Z,99601.88
2023-05-11T11:47:32.650Z,99606.22
2023-05-11T11:49:34.355Z,99602.81
2023-05-11T11:51:40.620Z,99604.44
2023-05-11T11:53:43.704Z,99600.50
2023-05-11T11:55:48.652Z,99602.28
2023-05-11T11:57:51.428Z,99609.56
2023-05-11T11:59:53.393Z,99603.88
2023-05-11T12:01:56.278Z,99600.75
2023-05-11T12:04:32.003Z,99598.91
2023-05-11T12:06:38.800Z,99589.66
2023-05-11T12:08:42.881Z,99596.78
2023-05-11T12:10:46.537Z,99594.19
2023-05-11T12:12:49.671Z,99591.00
2023-05-11T12:14:51.283Z,99589.19
2023-05-11T12:17:03.552Z,99591.03
2023-05-11T12:19:05.254Z,99585.16
2023-05-11T12:21:06.851Z,99590.19
2023-05-11T12:23:11.222Z,99590.00
2023-05-11T12:25:18.112Z,99582.88
2023-05-11T12:27:20.077Z,99592.69
2023-05-11T12:29:21.789Z,99581.41
2023-05-11T12:31:23.349Z,99585.59
2023-05-11T12:33:24.912Z,99584.34
2023-05-11T12:35:29.710Z,99578.16
2023-05-11T12:37:31.993Z,99576.59
2023-05-11T12:39:36.041Z,99580.09
2023-05-11T12:41:37.648Z,99579.22
2023-05-11T12:43:39.300Z,99577.47
2023-05-11T12:45:40.804Z,99581.53
2023-05-11T12:47:42.507Z,99578.41
2023-05-11T12:49:44.619Z,99581.25
2023-05-11T12:51:56.099Z,99581.25
2023-05-11T12:53:57.636Z,99575.31
2023-05-11T12:55:59.954Z,99579.88
2023-05-11T12:58:15.377Z,99577.22
2023-05-11T13:00:18.528Z,99576.69
2023-05-11T13:02:21.100Z,99575.34
2023-05-11T13:04:32.627Z,99578.31
2023-05-11T13:06:34.180Z,99575.94
2023-05-11T13:08:37.632Z,99579.66
2023-05-11T13:10:39.221Z,99577.78
2023-05-11T13:12:51.790Z,99588.19
2023-05-11T13:15:13.264Z,99574.56
2023-05-11T13:17:35.349Z,99581.22
2023-05-11T13:19:39.211Z,99582.28
2023-05-11T13:21:40.717Z,99579.03
2023-05-11T13:23:42.266Z,99586.78
2023-05-11T13:25:46.576Z,99582.22
2023-05-11T13:27:48.152Z,99587.56
2023-05-11T13:29:49.702Z,99580.88
2023-05-11T13:31:52.970Z,99586.72
2023-05-11T13:33:54.561Z,99582.69
2023-05-11T13:35:56.125Z,99586.97
2023-05-11T13:37:58.625Z,99582.69
2023-05-11T13:40:00.764Z,99592.25
2023-05-11T13:42:02.433Z,99590.91
2023-05-11T13:44:04.394Z,99585.25
2023-05-11T13:46:05.994Z,99585.00
2023-05-11T13:48:07.571Z,99591.41
2023-05-11T13:50:09.434Z,99588.19
2023-05-11T13:52:11.399Z,99595.16
2023-05-11T13:54:13.294Z,99588.72
2023-05-11T13:56:15.363Z,99586.03
2023-05-11T13:58:18.011Z,99579.88
2023-05-11T14:00:19.858Z,99583.50
2023-05-11T14:02:21.427Z,99580.28
2023-05-11T14:04:23.043Z,99578.22
2023-05-11T14:06:28.507Z,99576.31
2023-05-11T14:08:30.083Z,99584.56
2023-05-11T14:10:31.596Z,99579.13
2023-05-11T14:12:33.136Z,99582.41
2023-05-11T14:14:34.699Z,99578.94
2023-05-11T14:16:36.366Z,99584.81
2023-05-11T14:18:38.031Z,99588.84
2023-05-11T14:20:42.262Z,99590.09
2023-05-11T14:22:43.881Z,99593.47
2023-05-11T14:24:45.465Z,99595.53
2023-05-11T14:26:47.292Z,99603.44
2023-05-11T14:28:48.866Z,99599.84
2023-05-11T14:30:51.138Z,99590.50
2023-05-11T14:32:55.402Z,99600.75
2023-05-11T14:34:56.942Z,99602.13
2023-05-11T14:36:58.711Z,99607.41
2023-05-11T14:39:00.227Z,99604.75
2023-05-11T14:41:02.361Z,99609.56
2023-05-11T14:43:04.262Z,99606.59
2023-05-11T14:45:06.938Z,99612.28
2023-05-11T14:47:08.823Z,99613.59
2023-05-11T14:49:10.431Z,99621.88
2023-05-11T14:51:11.989Z,99615.47
2023-05-11T14:53:13.773Z,99612.28
2023-05-11T14:55:15.406Z,99608.03
2023-05-11T14:57:17.609Z,99604.81
2023-05-11T14:59:20.048Z,99610.16
2023-05-11T15:01:21.742Z,99601.91
2023-05-11T15:03:25.038Z,99604.34
2023-05-11T15:05:27.496Z,99600.66
2023-05-11T15:07:29.016Z,99604.69
2023-05-11T15:09:30.551Z,99601.88
2023-05-11T15:11:32.103Z,99602.41
2023-05-11T15:13:33.644Z,99611.72
2023-05-11T15:15:35.189Z,99602.91
2023-05-11T15:17:36.865Z,99599.75
2023-05-11T15:19:38.450Z,99600.25
2023-05-11T15:21:40.021Z,99601.78
2023-05-11T15:23:41.532Z,99603.38
2023-05-11T15:25:44.430Z,99604.97
2023-05-11T15:27:46.073Z,99601.22
2023-05-11T15:29:47.715Z,99607.59
2023-05-11T15:31:49.334Z,99606.56
2023-05-11T15:33:51.042Z,99607.94
2023-05-11T15:35:52.982Z,99608.75
2023-05-11T15:37:54.525Z,99608.75
2023-05-11T15:39:56.283Z,99613.31
2023-05-11T15:41:57.783Z,99612.19
2023-05-11T15:43:59.314Z,99611.41
2023-05-11T15:46:03.482Z,99611.16
2023-05-11T15:48:05.520Z,99609.50
2023-05-11T15:50:07.507Z,99617.31
2023-05-11T15:52:09.038Z,99613.25
2023-05-11T15:54:10.527Z,99619.88
2023-05-11T15:56:12.316Z,99616.97
2023-05-11T15:58:13.963Z,99619.34
2023-05-11T16:00:16.428Z,99619.34
2023-05-11T16:02:18.185Z,99617.72
2023-05-11T16:04:19.729Z,99624.63
2023-05-11T16:06:21.367Z,99617.38
2023-05-11T16:08:22.944Z,99617.13
2023-05-11T16:10:24.484Z,99622.41
2023-05-11T16:12:26.177Z,99620.25
2023-05-11T16:14:27.727Z,99616.50
2023-05-11T16:16:29.549Z,99617.00
2023-05-11T16:18:31.141Z,99616.50
2023-05-11T16:20:32.732Z,99617.81
2023-05-11T16:22:36.058Z,99614.34
2023-05-11T16:24:37.669Z,99619.69
2023-05-11T16:26:39.825Z,99620.22
2023-05-11T16:28:41.755Z,99612.72
2023-05-11T16:30:43.468Z,99612.38
2023-05-11T16:32:45.050Z,99606.81
2023-05-11T16:34:46.718Z,99607.88
2023-05-11T16:36:48.249Z,99608.38
2023-05-11T16:38:49.792Z,99611.84
2023-05-11T16:40:51.363Z,99615.47
2023-05-11T16:42:53.843Z,99608.22
2023-05-11T16:44:55.375Z,99607.88
2023-05-11T16:46:56.938Z,99601.41
2023-05-11T16:48:58.748Z,99602.25
2023-05-11T16:51:00.452Z,99606.72
2023-05-11T16:53:03.295Z,99609.13
2023-05-11T16:55:05.643Z,99596.88
2023-05-11T16:57:07.301Z,99598.44
2023-05-11T16:59:10.554Z,99599.72
2023-05-11T17:01:12.348Z,99605.22
2023-05-11T17:03:14.030Z,99602.06
2023-05-11T17:05:18.010Z,99597.06
2023-05-11T17:07:19.553Z,99602.38
2023-05-11T17:09:21.151Z,99596.53
2023-05-11T17:11:22.791Z,99600.00
2023-05-11T17:13:24.326Z,99590.31
2023-05-11T17:15:26.676Z,99594.09
2023-05-11T17:17:28.522Z,99595.06
2023-05-11T17:19:30.722Z,99590.75
2023-05-11T17:21:32.439Z,99599.03
2023-05-11T17:23:34.972Z,99594.09
2023-05-11T17:25:36.542Z,99592.09
2023-05-11T17:27:38.121Z,99589.50
2023-05-11T17:29:43.420Z,99596.22
2023-05-11T17:31:48.769Z,99592.84
2023-05-11T17:33:50.728Z,99593.75
2023-05-11T17:35:52.336Z,99593.50
2023-05-11T17:37:53.864Z,99593.31
2023-05-11T17:39:55.880Z,99596.22
2023-05-11T17:41:57.873Z,99591.72
2023-05-11T17:43:59.413Z,99590.84
2023-05-11T17:46:03.990Z,99596.94
2023-05-11T17:48:05.868Z,99597.16
2023-05-11T17:50:07.904Z,99595.50
2023-05-11T17:52:10.233Z,99594.28
2023-05-11T17:54:12.082Z,99598.22
2023-05-11T17:56:13.930Z,99598.63
2023-05-11T17:58:15.642Z,99596.13
2023-05-11T18:00:17.686Z,99603.59
2023-05-11T18:02:19.391Z,99598.53
2023-05-11T18:04:21.180Z,99604.91
2023-05-11T18:06:22.729Z,99603.47
2023-05-11T18:08:24.328Z,99600.25
2023-05-11T18:10:25.980Z,99603.53
2023-05-11T18:12:27.661Z,99600.81
2023-05-11T18:14:29.205Z,99599.94
2023-05-11T18:16:30.881Z,99604.25
2023-05-11T18:18:32.655Z,99605.03
2023-05-11T18:20:37.557Z,99609.28
2023-05-11T18:22:39.344Z,99606.00
2023-05-11T18:24:40.875Z,99615.03
2023-05-11T18:26:42.443Z,99609.94
2023-05-11T18:28:43.956Z,99618.72
2023-05-11T18:30:45.593Z,99618.41
2023-05-11T18:32:47.158Z,99625.09
2023-05-11T18:34:48.704Z,99616.97
2023-05-11T18:36:50.824Z,99614.63
2023-05-11T18:38:52.405Z,99613.59
2023-05-11T18:40:54.005Z,99614.88
2023-05-11T18:42:56.120Z,99608.06
2023-05-11T18:44:57.868Z,99616.72
2023-05-11T18:46:59.512Z,99618.47
2023-05-11T18:49:01.074Z,99617.16
2023-05-11T18:51:02.903Z,99624.25
2023-05-11T18:53:04.442Z,99624.25
2023-05-11T18:55:06.494Z,99626.13
2023-05-11T18:57:08.153Z,99631.13
2023-05-11T18:59:09.713Z,99624.72
2023-05-11T19:01:11.290Z,99620.50
2023-05-11T19:03:14.633Z,99628.47
2023-05-11T19:05:16.434Z,99627.34
2023-05-11T19:07:19.985Z,99636.66
2023-05-11T19:09:23.053Z,99632.16
2023-05-11T19:11:25.602Z,99634.00
2023-05-11T19:13:27.236Z,99633.19
2023-05-11T19:15:28.729Z,99637.63
2023-05-11T19:17:30.530Z,99634.19
2023-05-11T19:19:32.070Z,99629.41
2023-05-11T19:21:35.480Z,99638.69
2023-05-11T19:23:37.052Z,99635.63
2023-05-11T19:25:38.629Z,99635.88
2023-05-11T19:27:40.255Z,99640.69
2023-05-11T19:29:41.829Z,99643.91
2023-05-11T19:31:43.780Z,99639.34
2023-05-11T19:33:45.334Z,99638.84
2023-05-11T19:35:46.854Z,99649.38
2023-05-11T19:37:48.503Z,99642.13
2023-05-11T19:39:50.101Z,99650.75
2023-05-11T19:41:51.657Z,99649.88
2023-05-11T19:43:53.230Z,99643.03
2023-05-11T19:45:55.511Z,99647.53
2023-05-11T19:47:58.582Z,99651.00
2023-05-11T19:50:00.166Z,99651.31
2023-05-11T19:52:01.769Z,99641.50
2023-05-11T19:54:03.338Z,99642.78
2023-05-11T19:56:04.902Z,99646.00
2023-05-11T19:58:06.970Z,99644.16
2023-05-11T20:00:09.824Z,99646.50
2023-05-11T20:02:11.463Z,99646.56
2023-05-11T20:04:14.841Z,99640.44
2023-05-11T20:06:16.690Z,99643.59
2023-05-11T20:08:19.065Z,99646.81
2023-05-11T20:10:21.020Z,99648.66
2023-05-11T20:12:22.784Z,99642.53
2023-05-11T20:14:24.507Z,99639.66
2023-05-11T20:16:27.252Z,99648.66
2023-05-11T20:18:29.058Z,99640.69
2023-05-11T20:20:31.589Z,99638.84
2023-05-11T20:22:33.168Z,99641.25
2023-05-11T20:24:34.696Z,99635.94
2023-05-11T20:26:39.876Z,99635.94
2023-05-11T20:28:41.662Z,99633.28
2023-05-11T20:30:43.208Z,99637.22
2023-05-11T20:34:52.924Z,99630.38
2023-05-11T20:36:54.435Z,99627.91
2023-05-11T20:38:55.958Z,99627.00
2023-05-11T20:40:58.095Z,99626.28
2023-05-11T20:42:59.619Z,99623.13
2023-05-11T20:45:07.119Z,99624.75
2023-05-11T20:47:08.997Z,99626.94
2023-05-11T20:49:16.740Z,99628.53
2023-05-11T20:51:23.923Z,99619.28
2023-05-11T20:53:26.603Z,99620.31
2023-05-11T20:55:28.177Z,99620.31
2023-05-11T20:57:29.748Z,99615.00
2023-05-11T21:01:36.328Z,99602.72
2023-05-11T21:03:38.018Z,99607.78
2023-05-11T21:05:39.630Z,99604.06
2023-05-11T21:07:41.246Z,99605.44
2023-05-11T21:09:44.507Z,99604.38
2023-05-11T21:11:48.301Z,99603.25
2023-05-11T21:13:49.870Z,99596.91
2023-05-11T21:15:51.568Z,99596.66
2023-05-11T21:17:53.418Z,99601.09
2023-05-11T21:19:55.012Z,99602.16
2023-05-11T21:21:56.623Z,99601.41
2023-05-11T21:23:58.829Z,99594.41
2023-05-11T21:26:00.394Z,99595.53
2023-05-11T21:28:01.972Z,99595.78
2023-05-11T21:30:03.737Z,99592.81
2023-05-11T21:32:07.853Z,99600.53
2023-05-11T21:34:09.387Z,99594.41
2023-05-11T21:36:10.898Z,99599.19
2023-05-11T21:38:15.043Z,99592.25
2023-05-11T21:40:18.062Z,99589.59
2023-05-11T21:42:19.889Z,99590.63
2023-05-11T21:44:21.505Z,99590.16
2023-05-11T21:46:23.145Z,99596.53
2023-05-11T21:48:24.845Z,99592.47
2023-05-11T21:50:26.588Z,99591.75
2023-05-11T21:52:28.132Z,99590.41
2023-05-11T21:54:29.678Z,99581.06
2023-05-11T21:56:31.392Z,99590.63
2023-05-11T21:58:33.088Z,99582.66
2023-05-11T22:00:34.983Z,99582.19
2023-05-11T22:02:38.012Z,99579.78
2023-05-11T22:04:39.672Z,99580.34
2023-05-11T22:06:41.260Z,99580.75
2023-05-11T22:08:42.778Z,99573.84
2023-05-11T22:10:44.391Z,99582.66
2023-05-11T22:12:45.987Z,99580.28
2023-05-11T22:14:47.497Z,99579.38
2023-05-11T22:16:49.046Z,99566.19
2023-05-11T22:18:50.879Z,99574.72
2023-05-11T22:20:52.475Z,99568.22
2023-05-11T22:22:54.014Z,99575.09
2023-05-11T22:24:55.582Z,99573.34
2023-05-11T22:26:57.237Z,99571.19
2023-05-11T22:28:58.731Z,99565.06
2023-05-11T22:31:00.757Z,99562.91
2023-05-11T22:33:02.340Z,99566.59
2023-05-11T22:35:04.279Z,99562.16
2023-05-11T22:37:05.855Z,99559.75
2023-05-11T22:39:07.413Z,99563.22
2023-05-11T22:41:09.053Z,99556.28
2023-05-11T22:43:10.651Z,99561.09
2023-05-11T22:45:12.208Z,99561.34
2023-05-11T22:47:13.928Z,99553.16
2023-05-11T22:49:16.172Z,99557.16
2023-05-11T22:51:18.162Z,99559.09
2023-05-11T22:53:20.916Z,99550.56
2023-05-11T22:55:22.860Z,99552.66
2023-05-11T22:57:26.287Z,99555.31
2023-05-11T22:59:27.797Z,99545.19
2023-05-11T23:01:29.375Z,99553.88
2023-05-11T23:03:30.934Z,99550.97
2023-05-11T23:05:32.497Z,99546.31
2023-05-11T23:07:34.132Z,99546.63
2023-05-11T23:09:35.725Z,99546.84
2023-05-11T23:11:37.263Z,99543.72
2023-05-11T23:13:40.024Z,99541.84
2023-05-11T23:15:42.551Z,99540.19
2023-05-11T23:17:44.202Z,99546.31
2023-05-11T23:19:45.875Z,99538.03
2023-05-11T23:21:47.382Z,99538.81
2023-05-11T23:23:48.884Z,99542.03
2023-05-11T23:25:50.464Z,99541.81
2023-05-11T23:27:55.511Z,99543.97
2023-05-11T23:29:57.012Z,99548.47
2023-05-11T23:31:58.591Z,99537.84
2023-05-11T23:34:00.684Z,99542.34
2023-05-11T23:36:02.230Z,99538.88
2023-05-11T23:38:04.436Z,99539.38
2023-05-11T23:40:07.265Z,99542.03
2023-05-11T23:42:09.196Z,99544.69
2023-05-11T23:44:10.969Z,99544.13
2023-05-11T23:46:12.469Z,99545.97
2023-05-11T23:48:14.139Z,99547.03
2023-05-11T23:50:15.834Z,99543.56
2023-05-11T23:52:17.347Z,99548.88
2023-05-11T23:54:19.044Z,99542.22
2023-05-11T23:56:21.660Z,99549.84
2023-05-11T23:58:23.175Z,99543.25
